createdAt,value
2018-10-12T00:00:43.307Z,17.52
2018-10-12T00:03:13.904Z,17.39
2018-10-12T00:05:44.095Z,17.46
2018-10-12T00:08:13.961Z,17.55
2018-10-12T00:10:43.794Z,17.54
2018-10-12T00:13:13.599Z,17.60
2018-10-12T00:15:43.367Z,17.68
2018-10-12T00:18:13.247Z,17.50
2018-10-12T00:20:43.001Z,17.30
2018-10-12T00:23:12.775Z,16.98
2018-10-12T00:25:42.541Z,16.75
2018-10-12T00:28:12.357Z,16.55
2018-10-12T00:30:42.186Z,16.37
2018-10-12T00:33:12.083Z,16.17
2018-10-12T00:35:41.930Z,16.04
2018-10-12T00:38:11.704Z,15.89
2018-10-12T00:40:42.441Z,15.74
2018-10-12T00:43:12.195Z,15.83
2018-10-12T00:45:41.990Z,15.78
2018-10-12T00:48:12.006Z,15.68
2018-10-12T00:50:41.747Z,15.57
2018-10-12T00:53:11.482Z,15.43
2018-10-12T00:55:41.240Z,15.41
2018-10-12T00:58:11.214Z,15.23
2018-10-12T01:00:41.013Z,15.45
2018-10-12T01:03:10.886Z,15.36
2018-10-12T01:05:40.811Z,15.41
2018-10-12T01:08:10.818Z,15.52
2018-10-12T01:10:40.717Z,15.50
2018-10-12T01:13:10.577Z,15.50
2018-10-12T01:15:40.327Z,15.52
2018-10-12T01:18:10.055Z,15.85
2018-10-12T01:20:39.962Z,15.90
2018-10-12T01:23:09.893Z,15.94
2018-10-12T01:25:39.808Z,16.06
2018-10-12T01:28:09.744Z,16.09
2018-10-12T01:30:39.713Z,16.08
2018-10-12T01:33:09.558Z,16.07
2018-10-12T01:35:39.502Z,16.22
2018-10-12T01:38:09.372Z,16.25
2018-10-12T01:40:39.238Z,16.21
2018-10-12T01:43:09.027Z,16.02
2018-10-12T01:45:38.811Z,16.02
2018-10-12T01:48:08.742Z,15.97
2018-10-12T01:50:38.642Z,16.08
2018-10-12T01:53:08.521Z,16.15
2018-10-12T01:55:38.313Z,16.17
2018-10-12T01:58:08.198Z,16.11
2018-10-12T02:00:38.059Z,16.21
2018-10-12T02:03:07.908Z,16.28
2018-10-12T02:05:37.734Z,16.32
2018-10-12T02:08:07.658Z,16.23
2018-10-12T02:10:37.442Z,16.14
2018-10-12T02:13:07.612Z,16.07
2018-10-12T02:15:37.412Z,15.85
2018-10-12T02:18:07.274Z,15.73
2018-10-12T02:20:37.078Z,15.84
2018-10-12T02:23:07.438Z,15.72
2018-10-12T02:25:38.049Z,15.74
2018-10-12T02:28:07.881Z,15.84
2018-10-12T02:30:37.769Z,15.89
2018-10-12T02:33:07.717Z,15.88
2018-10-12T02:35:37.502Z,15.82
2018-10-12T02:38:07.549Z,15.78
2018-10-12T02:40:37.483Z,15.77
2018-10-12T02:43:07.458Z,15.82
2018-10-12T02:45:37.161Z,15.90
2018-10-12T02:48:07.200Z,15.82
2018-10-12T02:50:36.997Z,15.81
2018-10-12T02:53:06.930Z,15.78
2018-10-12T02:55:36.904Z,15.77
2018-10-12T02:58:06.818Z,15.56
2018-10-12T03:00:36.835Z,15.51
2018-10-12T03:03:06.633Z,15.55
2018-10-12T03:05:36.380Z,15.50
2018-10-12T03:08:06.195Z,15.38
2018-10-12T03:10:35.994Z,15.50
2018-10-12T03:13:05.877Z,15.65
2018-10-12T03:15:35.764Z,15.81
2018-10-12T03:18:05.755Z,15.96
2018-10-12T03:20:35.545Z,16.09
2018-10-12T03:23:05.465Z,16.16
2018-10-12T03:25:35.387Z,16.29
2018-10-12T03:28:22.698Z,16.22
2018-10-12T03:30:53.839Z,16.18
2018-10-12T03:33:23.797Z,16.14
2018-10-12T03:35:53.680Z,15.99
2018-10-12T03:38:23.490Z,15.82
2018-10-12T03:40:53.337Z,15.67
2018-10-12T03:43:23.253Z,15.61
2018-10-12T03:45:53.083Z,15.51
2018-10-12T03:48:22.952Z,15.40
2018-10-12T03:50:52.950Z,15.45
2018-10-12T03:53:22.669Z,15.25
2018-10-12T03:55:52.509Z,15.05
2018-10-12T03:58:22.411Z,14.89
2018-10-12T04:00:52.222Z,14.73
2018-10-12T04:03:21.978Z,14.62
2018-10-12T04:05:51.780Z,14.64
2018-10-12T04:08:21.549Z,14.72
2018-10-12T04:10:51.350Z,14.71
2018-10-12T04:13:21.190Z,14.71
2018-10-12T04:15:51.078Z,14.66
2018-10-12T04:18:20.911Z,14.62
2018-10-12T04:20:50.766Z,14.55
2018-10-12T04:23:20.629Z,14.60
2018-10-12T04:25:51.038Z,14.70
2018-10-12T04:28:20.933Z,14.81
2018-10-12T04:30:50.718Z,15.03
2018-10-12T04:33:20.503Z,15.25
2018-10-12T04:35:50.278Z,15.40
2018-10-12T04:38:20.161Z,15.64
2018-10-12T04:41:03.407Z,15.67
2018-10-12T04:43:34.216Z,15.69
2018-10-12T04:46:07.826Z,15.60
2018-10-12T04:48:38.903Z,15.43
2018-10-12T04:51:14.275Z,15.33
2018-10-12T04:53:44.362Z,15.22
2018-10-12T04:56:15.537Z,15.18
2018-10-12T04:58:45.393Z,15.23
2018-10-12T05:01:15.357Z,15.46
2018-10-12T05:03:45.101Z,15.58
2018-10-12T05:06:15.030Z,15.59
2018-10-12T05:08:47.789Z,15.82
2018-10-12T05:11:17.620Z,16.06
2018-10-12T05:13:47.542Z,15.94
2018-10-12T05:16:17.398Z,15.93
2018-10-12T05:18:47.315Z,16.09
2018-10-12T05:21:17.175Z,15.86
2018-10-12T05:23:47.139Z,15.78
2018-10-12T05:26:17.082Z,15.68
2018-10-12T05:28:46.909Z,15.57
2018-10-12T05:31:16.798Z,15.44
2018-10-12T05:33:46.667Z,15.30
2018-10-12T05:36:16.464Z,15.27
2018-10-12T05:38:46.209Z,15.16
2018-10-12T05:41:15.961Z,15.25
2018-10-12T05:43:45.773Z,15.23
2018-10-12T05:46:15.537Z,15.09
2018-10-12T05:49:02.053Z,15.05
2018-10-12T05:51:31.807Z,15.09
2018-10-12T05:54:01.884Z,15.12
2018-10-12T05:56:34.685Z,15.00
2018-10-12T05:59:05.259Z,15.01
2018-10-12T06:01:35.044Z,14.91
2018-10-12T06:04:04.912Z,15.02
2018-10-12T06:06:34.712Z,15.14
2018-10-12T06:09:06.057Z,15.21
2018-10-12T06:11:35.966Z,15.31
2018-10-12T06:14:05.929Z,15.35
2018-10-12T06:16:35.613Z,15.38
2018-10-12T06:19:05.371Z,15.33
2018-10-12T06:21:35.171Z,15.40
2018-10-12T06:24:04.928Z,15.43
2018-10-12T06:26:34.710Z,15.45
2018-10-12T06:29:04.460Z,15.53
2018-10-12T06:31:34.241Z,15.57
2018-10-12T06:34:03.954Z,15.67
2018-10-12T06:36:33.700Z,15.84
2018-10-12T06:39:03.499Z,15.83
2018-10-12T06:41:33.370Z,15.89
2018-10-12T06:44:03.118Z,15.96
2018-10-12T06:46:33.113Z,16.05
2018-10-12T06:49:02.855Z,16.11
2018-10-12T06:51:32.643Z,16.32
2018-10-12T06:54:02.382Z,16.28
2018-10-12T06:56:33.229Z,16.18
2018-10-12T06:59:03.120Z,16.23
2018-10-12T07:01:32.953Z,16.42
2018-10-12T07:04:02.798Z,16.55
2018-10-12T07:06:32.610Z,16.69
2018-10-12T07:09:02.631Z,16.87
2018-10-12T07:11:32.542Z,16.99
2018-10-12T07:14:02.542Z,16.96
2018-10-12T07:16:32.376Z,16.93
2018-10-12T07:19:02.090Z,17.07
2018-10-12T07:21:31.966Z,17.24
2018-10-12T07:24:01.830Z,17.28
2018-10-12T07:26:31.823Z,17.36
2018-10-12T07:29:01.617Z,17.30
2018-10-12T07:31:31.463Z,17.52
2018-10-12T07:34:01.230Z,17.75
2018-10-12T07:36:30.963Z,17.81
2018-10-12T07:39:00.826Z,17.87
2018-10-12T07:41:30.710Z,18.09
2018-10-12T07:44:00.474Z,18.30
2018-10-12T07:46:30.319Z,18.53
2018-10-12T07:49:00.143Z,18.65
2018-10-12T07:51:29.954Z,18.87
2018-10-12T07:53:59.739Z,18.87
2018-10-12T07:56:29.610Z,18.80
2018-10-12T07:58:59.574Z,19.06
2018-10-12T08:01:29.400Z,19.49
2018-10-12T08:03:59.405Z,19.55
2018-10-12T08:06:29.265Z,19.54
2018-10-12T08:08:59.030Z,19.71
2018-10-12T08:11:29.023Z,19.78
2018-10-12T08:13:58.819Z,19.97
2018-10-12T08:16:28.604Z,19.99
2018-10-12T08:18:58.545Z,20.06
2018-10-12T08:21:28.427Z,20.17
2018-10-12T08:23:58.339Z,20.25
2018-10-12T08:26:28.179Z,20.46
2018-10-12T08:28:57.956Z,20.34
2018-10-12T08:31:27.870Z,20.01
2018-10-12T08:33:57.723Z,19.96
2018-10-12T08:36:27.520Z,20.30
2018-10-12T08:38:57.285Z,20.26
2018-10-12T08:41:27.155Z,20.38
2018-10-12T08:43:56.853Z,20.82
2018-10-12T08:46:26.673Z,20.89
2018-10-12T08:48:56.366Z,20.96
2018-10-12T08:51:26.191Z,20.95
2018-10-12T08:53:55.980Z,21.33
2018-10-12T08:56:25.744Z,21.40
2018-10-12T08:58:55.467Z,21.51
2018-10-12T09:01:25.285Z,21.30
2018-10-12T09:03:55.067Z,21.33
2018-10-12T09:06:24.843Z,21.25
2018-10-12T09:08:54.658Z,21.16
2018-10-12T09:11:24.385Z,21.17
2018-10-12T09:13:54.187Z,21.25
2018-10-12T09:16:24.002Z,21.29
2018-10-12T09:18:53.790Z,21.37
2018-10-12T09:21:23.603Z,21.51
2018-10-12T09:23:53.346Z,21.40
2018-10-12T09:26:23.147Z,21.77
2018-10-12T09:28:52.914Z,21.80
2018-10-12T09:31:23.008Z,21.81
2018-10-12T09:33:52.421Z,21.79
2018-10-12T09:36:22.230Z,21.64
2018-10-12T09:38:52.158Z,21.87
2018-10-12T09:41:21.962Z,22.22
2018-10-12T09:43:51.713Z,22.26
2018-10-12T09:46:21.531Z,22.21
2018-10-12T09:48:51.331Z,22.51
2018-10-12T09:51:21.330Z,23.41
2018-10-12T09:53:51.201Z,25.42
2018-10-12T09:56:20.973Z,26.25
2018-10-12T09:58:50.720Z,27.03
2018-10-12T10:01:25.679Z,27.72
2018-10-12T10:04:00.558Z,26.96
2018-10-12T10:06:30.465Z,26.17
2018-10-12T10:09:00.422Z,26.86
2018-10-12T10:11:30.229Z,28.23
2018-10-12T10:14:00.409Z,28.24
2018-10-12T10:16:29.759Z,28.54
2018-10-12T10:18:59.586Z,29.52
2018-10-12T10:21:29.639Z,29.32
2018-10-12T10:23:59.410Z,29.74
2018-10-12T10:26:29.150Z,29.95
2018-10-12T10:28:58.941Z,30.18
2018-10-12T10:31:28.835Z,29.68
2018-10-12T10:33:58.557Z,29.72
2018-10-12T10:36:28.330Z,29.41
2018-10-12T10:38:58.073Z,29.59
2018-10-12T10:41:27.828Z,29.84
2018-10-12T10:43:57.682Z,30.18
2018-10-12T10:46:28.615Z,30.05
2018-10-12T10:48:58.318Z,29.64
2018-10-12T10:51:28.181Z,29.73
2018-10-12T10:53:57.929Z,30.17
2018-10-12T10:56:28.012Z,30.29
2018-10-12T10:58:57.747Z,29.24
2018-10-12T11:01:27.461Z,29.43
2018-10-12T11:03:57.191Z,29.60
2018-10-12T11:06:27.226Z,29.68
2018-10-12T11:08:56.825Z,29.51
2018-10-12T11:11:26.601Z,28.86
2018-10-12T11:13:56.401Z,28.55
2018-10-12T11:16:26.273Z,28.87
2018-10-12T11:18:56.275Z,29.15
2018-10-12T11:21:26.014Z,29.51
2018-10-12T11:23:55.832Z,29.62
2018-10-12T11:26:26.025Z,29.35
2018-10-12T11:28:55.705Z,29.49
2018-10-12T11:31:25.388Z,29.29
2018-10-12T11:33:55.221Z,29.08
2018-10-12T11:36:24.938Z,28.65
2018-10-12T11:38:54.824Z,28.62
2018-10-12T11:41:31.231Z,28.35
2018-10-12T11:44:00.973Z,28.83
2018-10-12T11:46:30.668Z,29.05
2018-10-12T11:49:00.489Z,28.83
2018-10-12T11:51:30.306Z,28.85
2018-10-12T11:54:00.053Z,28.86
2018-10-12T11:56:30.048Z,29.21
2018-10-12T11:58:59.790Z,28.81
2018-10-12T12:01:29.661Z,28.91
2018-10-12T12:03:59.357Z,28.99
2018-10-12T12:06:29.126Z,29.35
2018-10-12T12:08:58.893Z,29.47
2018-10-12T12:11:28.608Z,29.14
2018-10-12T12:13:58.588Z,28.98
2018-10-12T12:16:28.493Z,28.95
2018-10-12T12:18:58.226Z,28.64
2018-10-12T12:21:28.162Z,28.56
2018-10-12T12:23:57.876Z,28.96
2018-10-12T12:26:27.583Z,28.70
2018-10-12T12:28:57.437Z,28.36
2018-10-12T12:31:27.240Z,28.61
2018-10-12T12:33:56.942Z,28.68
2018-10-12T12:36:26.762Z,28.55
2018-10-12T12:38:56.645Z,28.49
2018-10-12T12:41:26.526Z,28.39
2018-10-12T12:43:56.359Z,28.29
2018-10-12T12:46:26.272Z,28.17
2018-10-12T12:48:56.638Z,28.40
2018-10-12T12:51:25.911Z,28.31
2018-10-12T12:53:55.787Z,28.59
2018-10-12T12:56:25.547Z,28.76
2018-10-12T12:58:55.443Z,28.84
2018-10-12T13:01:25.215Z,28.76
2018-10-12T13:03:55.119Z,28.88
2018-10-12T13:06:25.008Z,28.54
2018-10-12T13:08:54.692Z,28.60
2018-10-12T13:11:24.437Z,28.71
2018-10-12T13:13:54.191Z,28.86
2018-10-12T13:16:24.171Z,28.59
2018-10-12T13:18:54.063Z,28.79
2018-10-12T13:21:23.741Z,28.72
2018-10-12T13:23:53.513Z,28.49
2018-10-12T13:26:23.409Z,28.55
2018-10-12T13:28:53.004Z,28.24
2018-10-12T13:31:22.986Z,27.78
2018-10-12T13:33:53.245Z,27.54
2018-10-12T13:36:23.133Z,27.64
2018-10-12T13:38:52.829Z,27.53
2018-10-12T13:41:22.694Z,27.43
2018-10-12T13:43:52.442Z,27.41
2018-10-12T13:46:22.342Z,27.53
2018-10-12T13:48:52.132Z,27.73
2018-10-12T13:51:21.989Z,28.36
2018-10-12T13:53:52.922Z,28.51
2018-10-12T13:56:23.229Z,28.41
2018-10-12T13:58:53.069Z,28.24
2018-10-12T14:01:23.086Z,28.30
2018-10-12T14:03:52.833Z,27.85
2018-10-12T14:06:22.791Z,27.94
2018-10-12T14:08:52.462Z,27.74
2018-10-12T14:11:22.449Z,27.84
2018-10-12T14:13:52.867Z,27.77
2018-10-12T14:16:22.635Z,27.93
2018-10-12T14:18:52.664Z,27.94
2018-10-12T14:21:22.249Z,27.97
2018-10-12T14:23:52.032Z,27.81
2018-10-12T14:26:21.715Z,27.99
2018-10-12T14:28:51.497Z,27.91
2018-10-12T14:31:21.679Z,28.21
2018-10-12T14:33:51.366Z,27.86
2018-10-12T14:36:21.084Z,27.72
2018-10-12T14:38:50.865Z,27.65
2018-10-12T14:41:20.650Z,27.94
2018-10-12T14:43:50.400Z,27.66
2018-10-12T14:46:20.260Z,27.42
2018-10-12T14:48:50.098Z,27.42
2018-10-12T14:51:20.816Z,27.66
2018-10-12T14:53:50.542Z,27.52
2018-10-12T14:56:20.263Z,27.29
2018-10-12T14:58:49.999Z,27.09
2018-10-12T15:01:19.850Z,27.24
2018-10-12T15:03:49.547Z,27.17
2018-10-12T15:06:19.335Z,27.01
2018-10-12T15:08:49.157Z,26.77
2018-10-12T15:11:18.952Z,26.85
2018-10-12T15:13:49.701Z,26.92
2018-10-12T15:16:19.690Z,27.00
2018-10-12T15:18:49.502Z,27.05
2018-10-12T15:21:19.395Z,27.02
2018-10-12T15:23:49.221Z,27.00
2018-10-12T15:26:19.016Z,26.93
2018-10-12T15:28:48.831Z,27.00
2018-10-12T15:31:18.728Z,27.06
2018-10-12T15:33:48.630Z,26.92
2018-10-12T15:36:18.335Z,26.91
2018-10-12T15:38:48.272Z,26.63
2018-10-12T15:41:18.054Z,26.62
2018-10-12T15:43:47.856Z,26.43
2018-10-12T15:46:17.776Z,26.42
2018-10-12T15:48:47.518Z,26.23
2018-10-12T15:51:17.559Z,26.17
2018-10-12T15:53:48.152Z,26.12
2018-10-12T15:56:18.606Z,25.98
2018-10-12T15:58:48.913Z,25.83
2018-10-12T16:01:18.722Z,25.67
2018-10-12T16:03:48.522Z,25.61
2018-10-12T16:06:18.708Z,25.58
2018-10-12T16:08:48.538Z,25.46
2018-10-12T16:11:18.411Z,25.39
2018-10-12T16:15:17.717Z,25.39
2018-10-12T16:17:47.468Z,25.20
2018-10-12T16:20:17.273Z,25.12
2018-10-12T16:22:47.030Z,25.16
2018-10-12T16:26:05.080Z,25.10
2018-10-12T16:28:35.908Z,25.17
2018-10-12T16:31:05.671Z,25.02
2018-10-12T16:33:35.434Z,25.05
2018-10-12T16:36:05.341Z,25.02
2018-10-12T16:38:35.469Z,25.07
2018-10-12T16:41:05.474Z,25.11
2018-10-12T16:43:35.213Z,24.92
2018-10-12T16:46:05.080Z,24.89
2018-10-12T16:48:34.962Z,24.82
2018-10-12T16:51:04.903Z,24.62
2018-10-12T16:53:34.887Z,24.53
2018-10-12T16:56:04.874Z,24.51
2018-10-12T16:58:34.632Z,24.43
2018-10-12T17:01:04.457Z,24.36
2018-10-12T17:03:34.304Z,24.28
2018-10-12T17:06:04.166Z,24.38
2018-10-12T17:08:34.068Z,24.26
2018-10-12T17:11:04.109Z,24.32
2018-10-12T17:13:34.738Z,24.34
2018-10-12T17:16:04.887Z,24.24
2018-10-12T17:18:34.870Z,24.15
2018-10-12T17:21:07.550Z,24.08
2018-10-12T17:23:37.487Z,23.94
2018-10-12T17:26:07.456Z,23.76
2018-10-12T17:28:37.288Z,23.68
2018-10-12T17:31:07.992Z,23.50
2018-10-12T17:33:38.862Z,23.41
2018-10-12T17:36:09.962Z,23.38
2018-10-12T17:38:40.825Z,23.08
2018-10-12T17:41:20.584Z,22.68
2018-10-12T17:43:50.370Z,22.25
2018-10-12T17:48:59.695Z,21.82
2018-10-12T17:51:30.138Z,21.68
2018-10-12T17:54:00.377Z,21.50
2018-10-12T17:56:31.067Z,21.46
2018-10-12T17:59:01.994Z,21.43
2018-10-12T18:01:35.476Z,21.37
2018-10-12T18:04:07.139Z,21.87
2018-10-12T18:06:37.948Z,21.76
2018-10-12T18:09:11.025Z,21.59
2018-10-12T18:11:42.053Z,21.49
2018-10-12T18:14:13.075Z,21.27
2018-10-12T18:16:43.679Z,21.19
2018-10-12T18:19:14.152Z,21.12
2018-10-12T18:24:23.590Z,20.99
2018-10-12T18:26:54.357Z,21.09
2018-10-12T18:29:24.383Z,21.04
2018-10-12T18:31:54.399Z,21.25
2018-10-12T18:34:24.590Z,21.39
2018-10-12T18:36:54.594Z,21.51
2018-10-12T18:39:24.503Z,21.47
2018-10-12T18:41:54.490Z,21.43
2018-10-12T18:44:24.636Z,21.42
2018-10-12T18:46:54.804Z,21.28
2018-10-12T18:49:24.569Z,21.40
2018-10-12T18:51:54.399Z,21.40
2018-10-12T18:54:24.161Z,21.45
2018-10-12T18:56:53.891Z,21.37
2018-10-12T18:59:23.725Z,21.22
2018-10-12T19:01:53.482Z,21.19
2018-10-12T19:04:23.433Z,21.01
2018-10-12T19:06:53.353Z,20.91
2018-10-12T19:09:23.197Z,20.79
2018-10-12T19:11:53.042Z,20.71
2018-10-12T19:14:23.005Z,20.73
2018-10-12T19:16:52.980Z,20.55
2018-10-12T19:19:22.829Z,20.50
2018-10-12T19:21:52.815Z,20.60
2018-10-12T19:24:22.891Z,20.53
2018-10-12T19:26:53.090Z,20.65
2018-10-12T19:29:23.273Z,20.54
2018-10-12T19:31:54.503Z,20.70
2018-10-12T19:34:26.709Z,20.73
2018-10-12T19:36:58.945Z,20.75
2018-10-12T19:39:29.925Z,20.49
2018-10-12T19:42:00.603Z,20.42
2018-10-12T19:44:32.388Z,20.44
2018-10-12T19:47:07.539Z,20.46
2018-10-12T19:49:40.826Z,20.47
2018-10-12T19:52:13.386Z,20.54
2018-10-12T19:54:46.039Z,20.68
2018-10-12T19:57:20.847Z,20.69
2018-10-12T19:59:51.279Z,20.63
2018-10-12T20:02:30.809Z,20.47
2018-10-12T20:05:03.660Z,20.58
2018-10-12T20:07:37.777Z,20.50
2018-10-12T20:10:18.955Z,20.55
2018-10-12T20:12:51.484Z,20.39
2018-10-12T20:15:30.416Z,20.21
2018-10-12T20:18:01.962Z,20.11
2018-10-12T20:20:35.010Z,20.03
2018-10-12T20:23:04.943Z,19.91
2018-10-12T20:25:38.119Z,19.85
2018-10-12T20:28:20.517Z,19.89
2018-10-12T20:30:58.750Z,19.91
2018-10-12T20:33:32.935Z,19.87
2018-10-12T20:36:09.179Z,19.88
2018-10-12T20:38:47.824Z,19.69
2018-10-12T20:41:21.781Z,19.54
2018-10-12T20:43:52.365Z,19.42
2018-10-12T20:46:26.198Z,19.34
2018-10-12T20:48:57.529Z,19.28
2018-10-12T20:51:31.586Z,19.12
2018-10-12T20:54:06.459Z,19.18
2018-10-12T20:56:37.225Z,19.13
2018-10-12T20:59:07.083Z,19.08
2018-10-12T21:01:36.909Z,19.08
2018-10-12T21:04:06.733Z,18.99
2018-10-12T21:06:36.424Z,18.90
2018-10-12T21:09:09.359Z,18.94
2018-10-12T21:11:39.105Z,19.01
2018-10-12T21:14:08.923Z,19.05
2018-10-12T21:16:38.688Z,19.03
2018-10-12T21:19:08.744Z,18.97
2018-10-12T21:21:38.522Z,18.99
2018-10-12T21:24:08.354Z,19.23
2018-10-12T21:26:38.158Z,19.28
2018-10-12T21:29:07.902Z,19.18
2018-10-12T21:31:37.652Z,19.17
2018-10-12T21:34:07.394Z,19.17
2018-10-12T21:36:37.107Z,19.23
2018-10-12T21:39:07.702Z,19.30
2018-10-12T21:41:37.505Z,19.50
2018-10-12T21:44:07.445Z,19.46
2018-10-12T21:46:37.354Z,19.63
2018-10-12T21:49:07.181Z,19.57
2018-10-12T21:51:37.077Z,19.72
2018-10-12T21:54:06.862Z,19.75
2018-10-12T21:56:36.810Z,19.79
2018-10-12T21:59:06.615Z,19.76
2018-10-12T22:01:36.524Z,19.74
2018-10-12T22:04:06.394Z,19.86
2018-10-12T22:06:36.151Z,19.87
2018-10-12T22:09:08.774Z,19.97
2018-10-12T22:11:38.594Z,20.06
2018-10-12T22:14:08.379Z,20.14
2018-10-12T22:16:38.890Z,20.15
2018-10-12T22:19:08.734Z,20.12
2018-10-12T22:21:38.570Z,20.07
2018-10-12T22:24:08.448Z,20.05
2018-10-12T22:26:38.193Z,20.13
2018-10-12T22:29:08.106Z,20.08
2018-10-12T22:31:38.106Z,20.15
2018-10-12T22:34:08.276Z,20.04
2018-10-12T22:36:38.082Z,19.97
2018-10-12T22:39:10.318Z,19.93
2018-10-12T22:41:40.164Z,19.94
2018-10-12T22:44:09.834Z,20.12
2018-10-12T22:46:39.557Z,20.12
2018-10-12T22:49:09.285Z,20.00
2018-10-12T22:51:39.154Z,20.01
2018-10-12T22:54:09.079Z,20.10
2018-10-12T22:56:38.859Z,20.04
2018-10-12T22:59:09.208Z,20.24
2018-10-12T23:01:38.966Z,20.12
2018-10-12T23:04:08.764Z,20.11
2018-10-12T23:06:38.474Z,20.14
2018-10-12T23:09:10.945Z,20.27
2018-10-12T23:11:41.013Z,20.29
2018-10-12T23:14:10.972Z,20.20
2018-10-12T23:16:40.722Z,20.07
2018-10-12T23:19:10.474Z,20.04
2018-10-12T23:21:40.297Z,20.06
2018-10-12T23:24:09.995Z,20.02
2018-10-12T23:26:39.704Z,19.89
2018-10-12T23:29:09.397Z,20.06
2018-10-12T23:31:39.184Z,20.10
2018-10-12T23:34:09.737Z,20.09
2018-10-12T23:36:39.500Z,20.04
2018-10-12T23:39:10.759Z,20.06
2018-10-12T23:41:40.524Z,20.04
2018-10-12T23:44:10.239Z,19.85
2018-10-12T23:46:39.929Z,19.89
2018-10-12T23:49:09.596Z,19.86
2018-10-12T23:51:39.389Z,19.89
2018-10-12T23:54:09.085Z,19.81
2018-10-12T23:56:38.816Z,19.65
2018-10-12T23:59:08.595Z,19.68
